sensor_id;sensor_type;location;lat;lon;timestamp;P1;durP1;ratioP1;P2;durP2;ratioP2
10945;SDS011;5525;42.648;23.368;2022-07-06T00:00:51;23.88;;;21.40;;
10945;SDS011;5525;42.648;23.368;2022-07-06T00:03:17;22.17;;;19.98;;
10945;SDS011;5525;42.648;23.368;2022-07-06T00:05:44;21.67;;;19.48;;
10945;SDS011;5525;42.648;23.368;2022-07-06T00:08:12;21.45;;;19.40;;
10945;SDS011;5525;42.648;23.368;2022-07-06T00:10:39;21.42;;;19.27;;
10945;SDS011;5525;42.648;23.368;2022-07-06T00:13:06;20.58;;;18.65;;
10945;SDS011;5525;42.648;23.368;2022-07-06T00:15:33;21.33;;;19.25;;
10945;SDS011;5525;42.648;23.368;2022-07-06T00:18:00;20.77;;;18.85;;
10945;SDS011;5525;42.648;23.368;2022-07-06T00:20:27;23.85;;;21.45;;
10945;SDS011;5525;42.648;23.368;2022-07-06T00:22:54;22.92;;;20.73;;
10945;SDS011;5525;42.648;23.368;2022-07-06T00:25:22;24.65;;;22.13;;
10945;SDS011;5525;42.648;23.368;2022-07-06T00:27:49;24.42;;;22.08;;
10945;SDS011;5525;42.648;23.368;2022-07-06T00:30:16;23.50;;;21.27;;
10945;SDS011;5525;42.648;23.368;2022-07-06T00:32:43;24.85;;;20.90;;
10945;SDS011;5525;42.648;23.368;2022-07-06T00:35:09;23.20;;;20.40;;
10945;SDS011;5525;42.648;23.368;2022-07-06T00:37:36;22.13;;;19.58;;
10945;SDS011;5525;42.648;23.368;2022-07-06T00:40:04;23.27;;;20.75;;
10945;SDS011;5525;42.648;23.368;2022-07-06T00:42:39;24.63;;;21.63;;
10945;SDS011;5525;42.648;23.368;2022-07-06T00:45:07;24.23;;;21.70;;
10945;SDS011;5525;42.648;23.368;2022-07-06T00:47:36;25.48;;;21.02;;
10945;SDS011;5525;42.648;23.368;2022-07-06T00:50:03;25.10;;;21.67;;
10945;SDS011;5525;42.648;23.368;2022-07-06T00:52:40;25.50;;;21.70;;
10945;SDS011;5525;42.648;23.368;2022-07-06T00:55:07;24.13;;;21.17;;
10945;SDS011;5525;42.648;23.368;2022-07-06T00:57:34;27.63;;;22.30;;
10945;SDS011;5525;42.648;23.368;2022-07-06T01:00:03;24.58;;;21.20;;
10945;SDS011;5525;42.648;23.368;2022-07-06T01:02:31;27.77;;;22.45;;
10945;SDS011;5525;42.648;23.368;2022-07-06T01:04:59;29.65;;;23.65;;
10945;SDS011;5525;42.648;23.368;2022-07-06T01:07:26;26.98;;;22.48;;
10945;SDS011;5525;42.648;23.368;2022-07-06T01:09:54;27.10;;;22.90;;
10945;SDS011;5525;42.648;23.368;2022-07-06T01:12:21;26.40;;;22.20;;
10945;SDS011;5525;42.648;23.368;2022-07-06T01:14:48;34.75;;;24.77;;
10945;SDS011;5525;42.648;23.368;2022-07-06T01:17:17;28.17;;;24.17;;
10945;SDS011;5525;42.648;23.368;2022-07-06T01:19:44;28.95;;;24.20;;
10945;SDS011;5525;42.648;23.368;2022-07-06T01:22:12;33.10;;;24.70;;
10945;SDS011;5525;42.648;23.368;2022-07-06T01:24:39;30.23;;;23.33;;
10945;SDS011;5525;42.648;23.368;2022-07-06T01:27:06;24.42;;;20.30;;
10945;SDS011;5525;42.648;23.368;2022-07-06T01:29:33;28.50;;;22.20;;
10945;SDS011;5525;42.648;23.368;2022-07-06T01:32:01;30.40;;;23.13;;
10945;SDS011;5525;42.648;23.368;2022-07-06T01:34:28;28.90;;;24.25;;
10945;SDS011;5525;42.648;23.368;2022-07-06T01:36:55;30.17;;;22.90;;
10945;SDS011;5525;42.648;23.368;2022-07-06T01:39:23;33.10;;;26.52;;
10945;SDS011;5525;42.648;23.368;2022-07-06T01:41:50;38.65;;;30.20;;
10945;SDS011;5525;42.648;23.368;2022-07-06T01:44:17;44.42;;;32.58;;
10945;SDS011;5525;42.648;23.368;2022-07-06T01:46:44;52.90;;;37.05;;
10945;SDS011;5525;42.648;23.368;2022-07-06T01:49:11;58.28;;;40.28;;
10945;SDS011;5525;42.648;23.368;2022-07-06T01:51:38;49.67;;;37.63;;
10945;SDS011;5525;42.648;23.368;2022-07-06T01:54:04;52.25;;;38.40;;
10945;SDS011;5525;42.648;23.368;2022-07-06T01:56:33;49.22;;;36.33;;
10945;SDS011;5525;42.648;23.368;2022-07-06T01:58:59;44.60;;;33.50;;
10945;SDS011;5525;42.648;23.368;2022-07-06T02:01:26;46.55;;;32.42;;
10945;SDS011;5525;42.648;23.368;2022-07-06T02:03:53;39.38;;;29.25;;
10945;SDS011;5525;42.648;23.368;2022-07-06T02:06:20;35.40;;;27.08;;
10945;SDS011;5525;42.648;23.368;2022-07-06T02:08:47;33.22;;;25.45;;
10945;SDS011;5525;42.648;23.368;2022-07-06T02:11:16;32.75;;;26.35;;
10945;SDS011;5525;42.648;23.368;2022-07-06T02:13:45;26.52;;;21.40;;
10945;SDS011;5525;42.648;23.368;2022-07-06T02:16:11;22.95;;;20.48;;
10945;SDS011;5525;42.648;23.368;2022-07-06T02:18:39;21.38;;;18.38;;
10945;SDS011;5525;42.648;23.368;2022-07-06T02:21:06;23.33;;;19.50;;
10945;SDS011;5525;42.648;23.368;2022-07-06T02:23:32;21.70;;;18.05;;
10945;SDS011;5525;42.648;23.368;2022-07-06T02:25:59;20.58;;;17.50;;
10945;SDS011;5525;42.648;23.368;2022-07-06T02:28:26;20.67;;;16.92;;
10945;SDS011;5525;42.648;23.368;2022-07-06T02:30:55;20.42;;;17.40;;
10945;SDS011;5525;42.648;23.368;2022-07-06T02:33:22;18.77;;;16.45;;
10945;SDS011;5525;42.648;23.368;2022-07-06T02:35:49;19.15;;;16.38;;
10945;SDS011;5525;42.648;23.368;2022-07-06T02:38:16;18.98;;;15.88;;
10945;SDS011;5525;42.648;23.368;2022-07-06T02:40:43;20.52;;;16.60;;
10945;SDS011;5525;42.648;23.368;2022-07-06T02:43:09;17.92;;;15.65;;
10945;SDS011;5525;42.648;23.368;2022-07-06T02:45:36;17.95;;;16.08;;
10945;SDS011;5525;42.648;23.368;2022-07-06T02:48:05;18.73;;;16.45;;
10945;SDS011;5525;42.648;23.368;2022-07-06T02:50:32;18.88;;;16.55;;
10945;SDS011;5525;42.648;23.368;2022-07-06T02:52:59;20.40;;;16.77;;
10945;SDS011;5525;42.648;23.368;2022-07-06T02:55:27;19.08;;;17.08;;
10945;SDS011;5525;42.648;23.368;2022-07-06T02:57:53;19.02;;;16.58;;
10945;SDS011;5525;42.648;23.368;2022-07-06T03:00:21;19.02;;;16.95;;
10945;SDS011;5525;42.648;23.368;2022-07-06T03:02:48;18.85;;;16.85;;
10945;SDS011;5525;42.648;23.368;2022-07-06T03:05:16;19.45;;;17.27;;
10945;SDS011;5525;42.648;23.368;2022-07-06T03:07:43;19.52;;;16.92;;
10945;SDS011;5525;42.648;23.368;2022-07-06T03:10:10;19.35;;;16.50;;
10945;SDS011;5525;42.648;23.368;2022-07-06T03:12:37;18.73;;;16.73;;
10945;SDS011;5525;42.648;23.368;2022-07-06T03:15:04;18.20;;;16.02;;
10945;SDS011;5525;42.648;23.368;2022-07-06T03:17:34;19.35;;;17.08;;
10945;SDS011;5525;42.648;23.368;2022-07-06T03:20:01;18.77;;;16.60;;
10945;SDS011;5525;42.648;23.368;2022-07-06T03:22:30;17.83;;;15.93;;
10945;SDS011;5525;42.648;23.368;2022-07-06T03:24:57;19.08;;;15.60;;
10945;SDS011;5525;42.648;23.368;2022-07-06T03:27:24;20.25;;;16.08;;
10945;SDS011;5525;42.648;23.368;2022-07-06T03:29:51;17.13;;;15.32;;
10945;SDS011;5525;42.648;23.368;2022-07-06T03:32:18;18.75;;;16.65;;
10945;SDS011;5525;42.648;23.368;2022-07-06T03:34:44;20.02;;;16.67;;
10945;SDS011;5525;42.648;23.368;2022-07-06T03:37:11;20.65;;;16.98;;
10945;SDS011;5525;42.648;23.368;2022-07-06T03:39:40;23.00;;;18.38;;
10945;SDS011;5525;42.648;23.368;2022-07-06T03:42:07;23.58;;;18.10;;
10945;SDS011;5525;42.648;23.368;2022-07-06T03:44:33;20.98;;;18.77;;
10945;SDS011;5525;42.648;23.368;2022-07-06T03:47:00;19.35;;;17.20;;
10945;SDS011;5525;42.648;23.368;2022-07-06T03:49:27;20.77;;;16.65;;
10945;SDS011;5525;42.648;23.368;2022-07-06T03:51:54;19.83;;;16.83;;
10945;SDS011;5525;42.648;23.368;2022-07-06T03:54:21;17.23;;;15.35;;
10945;SDS011;5525;42.648;23.368;2022-07-06T03:56:50;19.13;;;15.82;;
10945;SDS011;5525;42.648;23.368;2022-07-06T03:59:16;18.63;;;16.42;;
10945;SDS011;5525;42.648;23.368;2022-07-06T04:01:43;19.52;;;16.45;;
10945;SDS011;5525;42.648;23.368;2022-07-06T04:04:10;19.25;;;16.85;;
10945;SDS011;5525;42.648;23.368;2022-07-06T04:06:37;17.27;;;15.48;;
10945;SDS011;5525;42.648;23.368;2022-07-06T04:09:04;18.95;;;16.50;;
10945;SDS011;5525;42.648;23.368;2022-07-06T04:11:31;18.98;;;15.18;;
10945;SDS011;5525;42.648;23.368;2022-07-06T04:14:00;15.68;;;14.00;;
10945;SDS011;5525;42.648;23.368;2022-07-06T04:16:27;19.35;;;14.48;;
10945;SDS011;5525;42.648;23.368;2022-07-06T04:18:53;14.68;;;12.27;;
10945;SDS011;5525;42.648;23.368;2022-07-06T04:21:20;14.45;;;12.27;;
10945;SDS011;5525;42.648;23.368;2022-07-06T04:23:47;10.68;;;9.68;;
10945;SDS011;5525;42.648;23.368;2022-07-06T04:26:14;12.57;;;8.98;;
10945;SDS011;5525;42.648;23.368;2022-07-06T04:28:41;9.23;;;8.27;;
10945;SDS011;5525;42.648;23.368;2022-07-06T04:31:09;11.32;;;7.90;;
10945;SDS011;5525;42.648;23.368;2022-07-06T04:33:40;8.38;;;6.60;;
10945;SDS011;5525;42.648;23.368;2022-07-06T04:36:07;7.38;;;6.55;;
10945;SDS011;5525;42.648;23.368;2022-07-06T04:38:34;8.70;;;5.97;;
10945;SDS011;5525;42.648;23.368;2022-07-06T04:41:01;9.10;;;6.40;;
10945;SDS011;5525;42.648;23.368;2022-07-06T04:43:28;8.45;;;6.47;;
10945;SDS011;5525;42.648;23.368;2022-07-06T04:45:55;10.38;;;7.22;;
10945;SDS011;5525;42.648;23.368;2022-07-06T04:48:24;9.98;;;6.30;;
10945;SDS011;5525;42.648;23.368;2022-07-06T04:50:50;9.05;;;6.20;;
10945;SDS011;5525;42.648;23.368;2022-07-06T04:53:17;9.10;;;6.53;;
10945;SDS011;5525;42.648;23.368;2022-07-06T04:55:44;10.13;;;6.18;;
10945;SDS011;5525;42.648;23.368;2022-07-06T04:58:11;8.43;;;6.50;;
10945;SDS011;5525;42.648;23.368;2022-07-06T05:00:38;8.23;;;6.40;;
10945;SDS011;5525;42.648;23.368;2022-07-06T05:03:05;9.30;;;7.22;;
10945;SDS011;5525;42.648;23.368;2022-07-06T05:05:33;9.82;;;7.63;;
10945;SDS011;5525;42.648;23.368;2022-07-06T05:08:00;8.85;;;7.18;;
10945;SDS011;5525;42.648;23.368;2022-07-06T05:10:26;8.55;;;7.65;;
10945;SDS011;5525;42.648;23.368;2022-07-06T05:12:53;10.73;;;9.38;;
10945;SDS011;5525;42.648;23.368;2022-07-06T05:15:21;13.15;;;10.05;;
10945;SDS011;5525;42.648;23.368;2022-07-06T05:17:48;13.05;;;10.80;;
10945;SDS011;5525;42.648;23.368;2022-07-06T05:20:15;13.10;;;10.25;;
10945;SDS011;5525;42.648;23.368;2022-07-06T05:22:43;15.95;;;11.40;;
10945;SDS011;5525;42.648;23.368;2022-07-06T05:25:10;16.55;;;11.43;;
10945;SDS011;5525;42.648;23.368;2022-07-06T05:27:37;16.15;;;11.90;;
10945;SDS011;5525;42.648;23.368;2022-07-06T05:30:04;16.30;;;11.18;;
10945;SDS011;5525;42.648;23.368;2022-07-06T05:32:32;17.33;;;10.73;;
10945;SDS011;5525;42.648;23.368;2022-07-06T05:35:00;12.57;;;10.15;;
10945;SDS011;5525;42.648;23.368;2022-07-06T05:37:27;12.75;;;10.32;;
10945;SDS011;5525;42.648;23.368;2022-07-06T05:39:55;12.95;;;9.52;;
10945;SDS011;5525;42.648;23.368;2022-07-06T05:42:22;9.73;;;8.65;;
10945;SDS011;5525;42.648;23.368;2022-07-06T05:44:49;9.38;;;8.45;;
10945;SDS011;5525;42.648;23.368;2022-07-06T05:47:16;10.88;;;9.05;;
10945;SDS011;5525;42.648;23.368;2022-07-06T05:50:01;10.73;;;9.00;;
10945;SDS011;5525;42.648;23.368;2022-07-06T05:52:40;11.50;;;9.00;;
10945;SDS011;5525;42.648;23.368;2022-07-06T05:55:09;10.48;;;8.55;;
10945;SDS011;5525;42.648;23.368;2022-07-06T05:57:36;12.50;;;8.40;;
10945;SDS011;5525;42.648;23.368;2022-07-06T06:00:05;11.10;;;8.38;;
10945;SDS011;5525;42.648;23.368;2022-07-06T06:02:37;10.25;;;8.65;;
10945;SDS011;5525;42.648;23.368;2022-07-06T06:05:05;11.57;;;8.25;;
10945;SDS011;5525;42.648;23.368;2022-07-06T06:07:33;12.35;;;8.70;;
10945;SDS011;5525;42.648;23.368;2022-07-06T06:10:02;9.93;;;8.93;;
10945;SDS011;5525;42.648;23.368;2022-07-06T06:12:31;9.63;;;8.32;;
10945;SDS011;5525;42.648;23.368;2022-07-06T06:14:58;15.27;;;9.30;;
10945;SDS011;5525;42.648;23.368;2022-07-06T06:17:25;12.88;;;8.80;;
10945;SDS011;5525;42.648;23.368;2022-07-06T06:19:52;9.10;;;8.20;;
10945;SDS011;5525;42.648;23.368;2022-07-06T06:22:19;10.70;;;9.18;;
10945;SDS011;5525;42.648;23.368;2022-07-06T06:24:46;10.68;;;8.93;;
10945;SDS011;5525;42.648;23.368;2022-07-06T06:27:13;12.65;;;8.32;;
10945;SDS011;5525;42.648;23.368;2022-07-06T06:29:42;9.88;;;8.80;;
10945;SDS011;5525;42.648;23.368;2022-07-06T06:32:09;9.80;;;8.73;;
10945;SDS011;5525;42.648;23.368;2022-07-06T06:34:36;10.25;;;8.68;;
10945;SDS011;5525;42.648;23.368;2022-07-06T06:37:03;13.32;;;9.38;;
10945;SDS011;5525;42.648;23.368;2022-07-06T06:39:30;11.23;;;9.45;;
10945;SDS011;5525;42.648;23.368;2022-07-06T06:41:58;15.88;;;10.25;;
10945;SDS011;5525;42.648;23.368;2022-07-06T06:44:25;12.70;;;10.00;;
10945;SDS011;5525;42.648;23.368;2022-07-06T06:46:53;12.90;;;10.65;;
10945;SDS011;5525;42.648;23.368;2022-07-06T06:49:20;12.63;;;10.30;;
10945;SDS011;5525;42.648;23.368;2022-07-06T06:51:47;11.38;;;10.20;;
10945;SDS011;5525;42.648;23.368;2022-07-06T06:54:13;16.25;;;11.70;;
10945;SDS011;5525;42.648;23.368;2022-07-06T06:56:40;14.02;;;10.88;;
10945;SDS011;5525;42.648;23.368;2022-07-06T06:59:07;14.50;;;11.32;;
10945;SDS011;5525;42.648;23.368;2022-07-06T07:01:34;12.57;;;11.38;;
10945;SDS011;5525;42.648;23.368;2022-07-06T07:04:02;17.83;;;11.32;;
10945;SDS011;5525;42.648;23.368;2022-07-06T07:06:31;12.20;;;10.77;;
10945;SDS011;5525;42.648;23.368;2022-07-06T07:08:58;16.40;;;11.40;;
10945;SDS011;5525;42.648;23.368;2022-07-06T07:11:25;14.88;;;12.15;;
10945;SDS011;5525;42.648;23.368;2022-07-06T07:13:51;14.50;;;11.98;;
10945;SDS011;5525;42.648;23.368;2022-07-06T07:16:18;12.23;;;10.98;;
10945;SDS011;5525;42.648;23.368;2022-07-06T07:18:45;14.93;;;11.68;;
10945;SDS011;5525;42.648;23.368;2022-07-06T07:21:13;12.40;;;11.20;;
10945;SDS011;5525;42.648;23.368;2022-07-06T07:23:40;18.10;;;12.05;;
10945;SDS011;5525;42.648;23.368;2022-07-06T07:26:07;14.07;;;11.32;;
10945;SDS011;5525;42.648;23.368;2022-07-06T07:28:35;13.48;;;11.82;;
10945;SDS011;5525;42.648;23.368;2022-07-06T07:31:02;17.60;;;12.32;;
10945;SDS011;5525;42.648;23.368;2022-07-06T07:33:30;13.88;;;12.02;;
10945;SDS011;5525;42.648;23.368;2022-07-06T07:35:57;14.93;;;12.63;;
10945;SDS011;5525;42.648;23.368;2022-07-06T07:38:25;13.07;;;11.77;;
10945;SDS011;5525;42.648;23.368;2022-07-06T07:40:52;13.43;;;11.65;;
10945;SDS011;5525;42.648;23.368;2022-07-06T07:43:20;12.65;;;11.25;;
10945;SDS011;5525;42.648;23.368;2022-07-06T07:45:47;12.57;;;11.30;;
10945;SDS011;5525;42.648;23.368;2022-07-06T07:48:14;15.35;;;11.90;;
10945;SDS011;5525;42.648;23.368;2022-07-06T07:50:41;16.23;;;12.25;;
10945;SDS011;5525;42.648;23.368;2022-07-06T07:53:08;13.52;;;12.02;;
10945;SDS011;5525;42.648;23.368;2022-07-06T07:55:37;12.98;;;11.60;;
10945;SDS011;5525;42.648;23.368;2022-07-06T07:58:04;12.95;;;11.40;;
10945;SDS011;5525;42.648;23.368;2022-07-06T08:00:31;12.45;;;11.15;;
10945;SDS011;5525;42.648;23.368;2022-07-06T08:02:58;12.05;;;11.00;;
10945;SDS011;5525;42.648;23.368;2022-07-06T08:05:25;13.00;;;11.80;;
10945;SDS011;5525;42.648;23.368;2022-07-06T08:07:52;13.20;;;11.43;;
10945;SDS011;5525;42.648;23.368;2022-07-06T08:10:20;11.80;;;10.70;;
10945;SDS011;5525;42.648;23.368;2022-07-06T08:12:48;11.50;;;10.30;;
10945;SDS011;5525;42.648;23.368;2022-07-06T08:15:16;11.70;;;10.60;;
10945;SDS011;5525;42.648;23.368;2022-07-06T08:17:43;10.02;;;9.10;;
10945;SDS011;5525;42.648;23.368;2022-07-06T08:20:10;12.40;;;10.10;;
10945;SDS011;5525;42.648;23.368;2022-07-06T08:22:38;11.25;;;10.13;;
10945;SDS011;5525;42.648;23.368;2022-07-06T08:25:05;13.60;;;10.55;;
10945;SDS011;5525;42.648;23.368;2022-07-06T08:27:33;12.23;;;10.30;;
10945;SDS011;5525;42.648;23.368;2022-07-06T08:30:01;11.07;;;9.98;;
10945;SDS011;5525;42.648;23.368;2022-07-06T08:32:29;11.02;;;9.10;;
10945;SDS011;5525;42.648;23.368;2022-07-06T08:34:55;10.52;;;9.52;;
10945;SDS011;5525;42.648;23.368;2022-07-06T08:37:22;11.52;;;10.45;;
10945;SDS011;5525;42.648;23.368;2022-07-06T08:39:49;11.18;;;9.93;;
10945;SDS011;5525;42.648;23.368;2022-07-06T08:42:16;11.38;;;8.88;;
10945;SDS011;5525;42.648;23.368;2022-07-06T08:44:44;10.68;;;9.50;;
10945;SDS011;5525;42.648;23.368;2022-07-06T08:47:13;10.57;;;9.40;;
10945;SDS011;5525;42.648;23.368;2022-07-06T08:49:40;9.95;;;8.90;;
10945;SDS011;5525;42.648;23.368;2022-07-06T08:52:09;10.80;;;9.68;;
10945;SDS011;5525;42.648;23.368;2022-07-06T08:54:37;11.05;;;9.48;;
10945;SDS011;5525;42.648;23.368;2022-07-06T08:57:04;10.50;;;9.35;;
10945;SDS011;5525;42.648;23.368;2022-07-06T08:59:32;10.50;;;9.50;;
10945;SDS011;5525;42.648;23.368;2022-07-06T09:01:59;11.02;;;10.00;;
10945;SDS011;5525;42.648;23.368;2022-07-06T09:04:28;11.68;;;10.57;;
10945;SDS011;5525;42.648;23.368;2022-07-06T09:06:58;11.55;;;10.32;;
10945;SDS011;5525;42.648;23.368;2022-07-06T09:09:25;12.90;;;9.90;;
10945;SDS011;5525;42.648;23.368;2022-07-06T09:11:56;14.18;;;10.75;;
10945;SDS011;5525;42.648;23.368;2022-07-06T09:14:23;13.57;;;11.27;;
10945;SDS011;5525;42.648;23.368;2022-07-06T09:16:51;11.98;;;10.77;;
10945;SDS011;5525;42.648;23.368;2022-07-06T09:19:29;12.15;;;10.95;;
10945;SDS011;5525;42.648;23.368;2022-07-06T09:21:57;12.07;;;11.00;;
10945;SDS011;5525;42.648;23.368;2022-07-06T09:24:24;12.50;;;11.30;;
10945;SDS011;5525;42.648;23.368;2022-07-06T09:26:52;12.52;;;11.20;;
10945;SDS011;5525;42.648;23.368;2022-07-06T09:29:26;15.73;;;11.75;;
10945;SDS011;5525;42.648;23.368;2022-07-06T09:31:57;15.50;;;11.18;;
10945;SDS011;5525;42.648;23.368;2022-07-06T09:34:25;12.77;;;11.57;;
10945;SDS011;5525;42.648;23.368;2022-07-06T09:37:07;13.45;;;12.00;;
10945;SDS011;5525;42.648;23.368;2022-07-06T09:39:35;12.60;;;11.38;;
10945;SDS011;5525;42.648;23.368;2022-07-06T09:42:03;12.93;;;11.43;;
10945;SDS011;5525;42.648;23.368;2022-07-06T09:44:33;13.05;;;10.88;;
10945;SDS011;5525;42.648;23.368;2022-07-06T09:47:03;11.32;;;10.15;;
10945;SDS011;5525;42.648;23.368;2022-07-06T09:49:31;11.82;;;10.63;;
10945;SDS011;5525;42.648;23.368;2022-07-06T09:51:58;11.65;;;10.65;;
10945;SDS011;5525;42.648;23.368;2022-07-06T09:54:28;11.52;;;10.20;;
10945;SDS011;5525;42.648;23.368;2022-07-06T09:56:56;12.90;;;11.55;;
10945;SDS011;5525;42.648;23.368;2022-07-06T09:59:24;13.38;;;12.05;;
10945;SDS011;5525;42.648;23.368;2022-07-06T10:01:53;12.45;;;11.00;;
10945;SDS011;5525;42.648;23.368;2022-07-06T10:04:21;13.27;;;11.98;;
10945;SDS011;5525;42.648;23.368;2022-07-06T10:06:50;12.43;;;11.23;;
10945;SDS011;5525;42.648;23.368;2022-07-06T10:09:18;12.82;;;11.52;;
10945;SDS011;5525;42.648;23.368;2022-07-06T10:11:49;14.05;;;12.50;;
10945;SDS011;5525;42.648;23.368;2022-07-06T10:14:18;12.50;;;11.30;;
10945;SDS011;5525;42.648;23.368;2022-07-06T10:16:47;12.70;;;11.50;;
10945;SDS011;5525;42.648;23.368;2022-07-06T10:19:16;12.75;;;11.45;;
10945;SDS011;5525;42.648;23.368;2022-07-06T10:21:44;12.90;;;11.65;;
10945;SDS011;5525;42.648;23.368;2022-07-06T10:24:12;12.52;;;11.32;;
10945;SDS011;5525;42.648;23.368;2022-07-06T10:26:40;14.40;;;11.90;;
10945;SDS011;5525;42.648;23.368;2022-07-06T10:29:10;12.32;;;11.23;;
10945;SDS011;5525;42.648;23.368;2022-07-06T10:31:38;13.25;;;11.95;;
10945;SDS011;5525;42.648;23.368;2022-07-06T10:34:09;12.25;;;11.15;;
10945;SDS011;5525;42.648;23.368;2022-07-06T10:36:39;12.35;;;11.18;;
10945;SDS011;5525;42.648;23.368;2022-07-06T10:39:06;12.00;;;10.80;;
10945;SDS011;5525;42.648;23.368;2022-07-06T10:41:51;12.10;;;10.85;;
10945;SDS011;5525;42.648;23.368;2022-07-06T10:44:22;13.48;;;12.27;;
10945;SDS011;5525;42.648;23.368;2022-07-06T10:46:51;12.27;;;11.13;;
10945;SDS011;5525;42.648;23.368;2022-07-06T10:49:19;12.88;;;11.68;;
10945;SDS011;5525;42.648;23.368;2022-07-06T10:51:47;13.10;;;11.80;;
10945;SDS011;5525;42.648;23.368;2022-07-06T10:54:16;12.80;;;11.15;;
10945;SDS011;5525;42.648;23.368;2022-07-06T10:56:46;12.55;;;11.32;;
10945;SDS011;5525;42.648;23.368;2022-07-06T10:59:14;12.27;;;11.18;;
10945;SDS011;5525;42.648;23.368;2022-07-06T11:02:11;12.38;;;11.05;;
10945;SDS011;5525;42.648;23.368;2022-07-06T11:04:39;12.77;;;11.15;;
10945;SDS011;5525;42.648;23.368;2022-07-06T11:07:07;12.75;;;11.57;;
10945;SDS011;5525;42.648;23.368;2022-07-06T11:09:35;12.27;;;10.90;;
10945;SDS011;5525;42.648;23.368;2022-07-06T11:12:11;11.80;;;10.77;;
10945;SDS011;5525;42.648;23.368;2022-07-06T11:14:42;11.70;;;10.60;;
10945;SDS011;5525;42.648;23.368;2022-07-06T11:17:11;12.30;;;11.20;;
10945;SDS011;5525;42.648;23.368;2022-07-06T11:19:38;13.13;;;11.93;;
10945;SDS011;5525;42.648;23.368;2022-07-06T11:22:15;13.48;;;12.38;;
10945;SDS011;5525;42.648;23.368;2022-07-06T11:24:43;12.90;;;11.57;;
10945;SDS011;5525;42.648;23.368;2022-07-06T11:27:10;13.07;;;12.02;;
10945;SDS011;5525;42.648;23.368;2022-07-06T11:29:38;13.48;;;12.38;;
10945;SDS011;5525;42.648;23.368;2022-07-06T11:32:06;13.52;;;12.43;;
10945;SDS011;5525;42.648;23.368;2022-07-06T11:34:37;13.82;;;12.25;;
10945;SDS011;5525;42.648;23.368;2022-07-06T11:37:07;13.40;;;12.10;;
10945;SDS011;5525;42.648;23.368;2022-07-06T11:39:35;14.48;;;13.00;;
10945;SDS011;5525;42.648;23.368;2022-07-06T11:42:06;13.57;;;12.45;;
10945;SDS011;5525;42.648;23.368;2022-07-06T11:44:34;12.80;;;11.70;;
10945;SDS011;5525;42.648;23.368;2022-07-06T11:47:01;14.63;;;11.82;;
10945;SDS011;5525;42.648;23.368;2022-07-06T11:49:29;14.73;;;13.27;;
10945;SDS011;5525;42.648;23.368;2022-07-06T11:51:58;15.25;;;13.82;;
10945;SDS011;5525;42.648;23.368;2022-07-06T11:54:25;13.20;;;12.00;;
10945;SDS011;5525;42.648;23.368;2022-07-06T11:56:53;13.77;;;12.57;;
10945;SDS011;5525;42.648;23.368;2022-07-06T11:59:22;13.27;;;12.07;;
10945;SDS011;5525;42.648;23.368;2022-07-06T12:01:50;12.52;;;11.43;;
10945;SDS011;5525;42.648;23.368;2022-07-06T12:04:24;13.10;;;11.80;;
10945;SDS011;5525;42.648;23.368;2022-07-06T12:06:52;13.10;;;11.88;;
10945;SDS011;5525;42.648;23.368;2022-07-06T12:09:20;13.27;;;11.95;;
10945;SDS011;5525;42.648;23.368;2022-07-06T12:11:48;12.68;;;11.40;;
10945;SDS011;5525;42.648;23.368;2022-07-06T12:14:16;11.60;;;10.60;;
10945;SDS011;5525;42.648;23.368;2022-07-06T12:16:44;12.32;;;11.23;;
10945;SDS011;5525;42.648;23.368;2022-07-06T12:19:12;13.23;;;12.02;;
10945;SDS011;5525;42.648;23.368;2022-07-06T12:21:42;13.23;;;12.02;;
10945;SDS011;5525;42.648;23.368;2022-07-06T12:24:16;13.23;;;11.93;;
10945;SDS011;5525;42.648;23.368;2022-07-06T12:26:45;12.85;;;11.65;;
10945;SDS011;5525;42.648;23.368;2022-07-06T12:29:12;12.52;;;11.45;;
10945;SDS011;5525;42.648;23.368;2022-07-06T12:31:42;12.35;;;11.20;;
10945;SDS011;5525;42.648;23.368;2022-07-06T12:34:13;10.73;;;9.80;;
10945;SDS011;5525;42.648;23.368;2022-07-06T12:36:42;11.05;;;10.15;;
10945;SDS011;5525;42.648;23.368;2022-07-06T12:39:10;11.98;;;10.88;;
10945;SDS011;5525;42.648;23.368;2022-07-06T12:41:43;12.10;;;10.90;;
10945;SDS011;5525;42.648;23.368;2022-07-06T12:44:13;11.88;;;10.68;;
10945;SDS011;5525;42.648;23.368;2022-07-06T12:46:42;11.52;;;10.45;;
10945;SDS011;5525;42.648;23.368;2022-07-06T12:49:13;12.60;;;10.95;;
10945;SDS011;5525;42.648;23.368;2022-07-06T12:51:52;12.27;;;11.07;;
10945;SDS011;5525;42.648;23.368;2022-07-06T12:54:23;12.20;;;11.00;;
10945;SDS011;5525;42.648;23.368;2022-07-06T12:56:58;11.75;;;10.60;;
10945;SDS011;5525;42.648;23.368;2022-07-06T12:59:29;11.75;;;10.55;;
10945;SDS011;5525;42.648;23.368;2022-07-06T13:01:57;11.60;;;10.40;;
10945;SDS011;5525;42.648;23.368;2022-07-06T13:04:24;10.57;;;9.45;;
10945;SDS011;5525;42.648;23.368;2022-07-06T13:06:53;10.35;;;9.45;;
10945;SDS011;5525;42.648;23.368;2022-07-06T13:09:20;9.20;;;8.38;;
10945;SDS011;5525;42.648;23.368;2022-07-06T13:11:48;8.38;;;7.55;;
10945;SDS011;5525;42.648;23.368;2022-07-06T13:14:16;9.20;;;7.63;;
10945;SDS011;5525;42.648;23.368;2022-07-06T13:16:46;8.05;;;7.35;;
10945;SDS011;5525;42.648;23.368;2022-07-06T13:19:14;7.25;;;6.63;;
10945;SDS011;5525;42.648;23.368;2022-07-06T13:21:41;8.00;;;7.30;;
10945;SDS011;5525;42.648;23.368;2022-07-06T13:24:09;8.48;;;6.80;;
10945;SDS011;5525;42.648;23.368;2022-07-06T13:26:36;7.35;;;6.75;;
10945;SDS011;5525;42.648;23.368;2022-07-06T13:29:03;7.13;;;6.53;;
10945;SDS011;5525;42.648;23.368;2022-07-06T13:31:31;5.90;;;5.40;;
10945;SDS011;5525;42.648;23.368;2022-07-06T13:33:59;5.38;;;4.90;;
10945;SDS011;5525;42.648;23.368;2022-07-06T13:36:26;6.28;;;5.45;;
10945;SDS011;5525;42.648;23.368;2022-07-06T13:38:53;6.05;;;5.55;;
10945;SDS011;5525;42.648;23.368;2022-07-06T13:41:20;5.47;;;4.97;;
10945;SDS011;5525;42.648;23.368;2022-07-06T13:43:47;5.47;;;4.97;;
10945;SDS011;5525;42.648;23.368;2022-07-06T13:46:14;5.53;;;4.88;;
10945;SDS011;5525;42.648;23.368;2022-07-06T13:48:42;6.72;;;5.40;;
10945;SDS011;5525;42.648;23.368;2022-07-06T13:51:10;5.47;;;5.07;;
10945;SDS011;5525;42.648;23.368;2022-07-06T13:53:37;5.22;;;4.82;;
10945;SDS011;5525;42.648;23.368;2022-07-06T13:56:04;6.40;;;4.93;;
10945;SDS011;5525;42.648;23.368;2022-07-06T13:58:33;4.20;;;3.90;;
10945;SDS011;5525;42.648;23.368;2022-07-06T14:01:00;4.57;;;3.95;;
10945;SDS011;5525;42.648;23.368;2022-07-06T14:03:27;3.83;;;3.40;;
10945;SDS011;5525;42.648;23.368;2022-07-06T14:05:55;4.22;;;3.70;;
10945;SDS011;5525;42.648;23.368;2022-07-06T14:08:24;4.93;;;3.90;;
10945;SDS011;5525;42.648;23.368;2022-07-06T14:10:51;4.53;;;3.63;;
10945;SDS011;5525;42.648;23.368;2022-07-06T14:13:18;5.40;;;3.50;;
10945;SDS011;5525;42.648;23.368;2022-07-06T14:15:45;3.53;;;3.22;;
10945;SDS011;5525;42.648;23.368;2022-07-06T14:18:12;3.35;;;3.05;;
10945;SDS011;5525;42.648;23.368;2022-07-06T14:20:39;4.30;;;3.90;;
10945;SDS011;5525;42.648;23.368;2022-07-06T14:23:07;3.97;;;3.30;;
10945;SDS011;5525;42.648;23.368;2022-07-06T14:25:36;3.50;;;3.20;;
10945;SDS011;5525;42.648;23.368;2022-07-06T14:28:03;3.95;;;3.47;;
10945;SDS011;5525;42.648;23.368;2022-07-06T14:30:31;3.08;;;2.88;;
10945;SDS011;5525;42.648;23.368;2022-07-06T14:32:58;3.08;;;2.88;;